createdAt,value
2023-03-24T00:02:01.745Z,19.58
2023-03-24T00:07:35.344Z,19.55
2023-03-24T00:12:56.864Z,19.40
2023-03-24T00:18:26.380Z,19.40
2023-03-24T00:23:52.660Z,19.38
2023-03-24T00:26:31.029Z,19.37
2023-03-24T00:29:11.287Z,19.36
2023-03-24T00:34:31.254Z,19.35
2023-03-24T00:39:49.331Z,19.33
2023-03-24T00:42:46.375Z,19.32
2023-03-24T00:48:24.891Z,19.29
2023-03-24T00:51:01.685Z,19.27
2023-03-24T00:53:58.472Z,19.27
2023-03-24T00:56:39.060Z,19.26
2023-03-24T00:59:27.322Z,19.24
2023-03-24T01:02:07.167Z,19.20
2023-03-24T01:04:54.539Z,19.19
2023-03-24T01:07:37.755Z,19.18
2023-03-24T01:10:44.055Z,19.18
2023-03-24T01:21:29.248Z,19.12
2023-03-24T01:27:12.636Z,19.10
2023-03-24T01:29:58.985Z,19.08
2023-03-24T01:32:38.810Z,19.07
2023-03-24T01:35:29.298Z,19.05
2023-03-24T01:38:11.677Z,19.03
2023-03-24T01:48:52.247Z,18.99
2023-03-24T01:51:51.361Z,18.97
2023-03-24T01:55:00.868Z,18.97
2023-03-24T02:08:33.288Z,18.90
2023-03-24T02:13:46.731Z,18.77
2023-03-24T02:19:28.541Z,18.79
2023-03-24T02:25:28.686Z,18.79
2023-03-24T02:28:02.031Z,18.78
2023-03-24T02:30:57.204Z,18.78
2023-03-24T02:33:55.043Z,18.77
2023-03-24T02:39:05.350Z,18.76
2023-03-24T02:41:42.421Z,18.75
2023-03-24T02:44:46.383Z,18.73
2023-03-24T02:47:52.575Z,18.73
2023-03-24T02:50:38.837Z,18.72
2023-03-24T03:05:05.090Z,18.68
2023-03-24T03:08:04.716Z,18.68
2023-03-24T03:14:16.063Z,18.68
2023-03-24T03:27:56.396Z,18.64
2023-03-24T03:51:33.428Z,18.55
2023-03-24T03:56:50.848Z,18.53
2023-03-24T04:02:12.121Z,18.52
2023-03-24T04:05:30.041Z,18.49
2023-03-24T04:08:23.969Z,18.47
2023-03-24T04:11:24.949Z,18.42
2023-03-24T04:14:04.915Z,18.35
2023-03-24T04:16:53.710Z,18.36
2023-03-24T04:19:37.969Z,18.36
2023-03-24T04:25:00.787Z,18.37
2023-03-24T04:27:36.778Z,18.35
2023-03-24T04:30:20.262Z,18.35
2023-03-24T04:41:45.530Z,18.32
2023-03-24T04:47:03.001Z,18.30
2023-03-24T04:49:50.910Z,18.30
2023-03-24T04:52:36.733Z,18.30
2023-03-24T04:55:37.143Z,18.29
2023-03-24T04:58:23.732Z,18.27
2023-03-24T05:01:01.505Z,18.27
2023-03-24T05:03:46.207Z,18.26
2023-03-24T05:06:20.315Z,18.25
2023-03-24T05:09:06.830Z,18.23
2023-03-24T05:17:44.188Z,18.21
2023-03-24T05:22:51.011Z,18.19
2023-03-24T05:25:33.059Z,18.17
2023-03-24T05:28:15.373Z,18.17
2023-03-24T05:30:52.691Z,18.16
2023-03-24T05:33:32.743Z,18.15
2023-03-24T05:41:38.720Z,18.11
2023-03-24T05:50:14.971Z,18.29
2023-03-24T05:59:07.653Z,18.76
2023-03-24T06:01:45.150Z,18.94
2023-03-24T06:04:21.222Z,19.12
2023-03-24T06:07:01.590Z,19.30
2023-03-24T06:09:41.084Z,19.49
2023-03-24T06:12:24.884Z,19.60
2023-03-24T06:17:46.514Z,19.94
2023-03-24T06:20:26.846Z,20.09
2023-03-24T06:23:03.154Z,20.21
2023-03-24T06:26:00.040Z,20.29
2023-03-24T06:28:35.807Z,20.38
2023-03-24T06:33:51.341Z,20.50
2023-03-24T06:39:07.938Z,20.59
2023-03-24T06:44:18.921Z,20.66
2023-03-24T06:46:55.903Z,20.68
2023-03-24T06:49:35.182Z,20.70
2023-03-24T06:52:17.889Z,20.71
2023-03-24T06:54:59.319Z,20.72
2023-03-24T06:57:38.560Z,20.73
2023-03-24T07:05:48.874Z,20.74
2023-03-24T07:14:18.162Z,20.74
2023-03-24T07:16:56.839Z,20.74
2023-03-24T07:19:39.911Z,20.75
2023-03-24T07:22:20.378Z,20.74
2023-03-24T07:43:50.794Z,20.74
2023-03-24T07:46:22.814Z,17.35
2023-03-24T07:48:55.093Z,16.53
2023-03-24T07:51:27.014Z,16.14
2023-03-24T07:53:59.351Z,15.54
2023-03-24T07:56:31.859Z,15.41
2023-03-24T07:59:06.500Z,15.14
2023-03-24T08:01:39.393Z,14.83
2023-03-24T08:04:12.086Z,14.66
2023-03-24T08:06:46.312Z,14.59
2023-03-24T08:09:18.306Z,14.52
2023-03-24T08:11:50.249Z,14.41
2023-03-24T08:14:26.199Z,14.28
2023-03-24T08:16:58.309Z,14.22
2023-03-24T08:19:30.965Z,14.16
2023-03-24T08:22:02.873Z,14.10
2023-03-24T08:24:35.013Z,14.04
2023-03-24T08:27:07.221Z,13.95
2023-03-24T08:29:41.898Z,13.88
2023-03-24T08:32:13.973Z,13.84
2023-03-24T08:34:46.224Z,13.82
2023-03-24T08:37:18.327Z,13.80
2023-03-24T08:39:50.318Z,13.79
2023-03-24T08:42:22.456Z,13.77
2023-03-24T08:44:57.409Z,13.77
2023-03-24T08:47:29.640Z,13.78
2023-03-24T08:50:01.811Z,13.79
2023-03-24T08:52:33.996Z,13.74
2023-03-24T08:55:07.876Z,13.73
2023-03-24T08:57:40.175Z,13.71
2023-03-24T09:00:16.972Z,13.72
2023-03-24T09:02:50.565Z,13.72
2023-03-24T09:05:33.310Z,13.70
2023-03-24T09:08:14.096Z,13.66
2023-03-24T09:10:48.417Z,13.65
2023-03-24T09:13:21.610Z,13.64
2023-03-24T09:16:01.440Z,13.63
2023-03-24T09:18:33.714Z,13.62
2023-03-24T09:21:06.089Z,13.65
2023-03-24T09:23:39.161Z,13.68
2023-03-24T09:26:11.971Z,13.69
2023-03-24T09:28:44.049Z,13.73
2023-03-24T09:31:18.846Z,13.79
2023-03-24T09:33:51.224Z,13.83
2023-03-24T09:36:23.532Z,13.91
2023-03-24T09:38:55.606Z,13.96
2023-03-24T09:41:34.477Z,14.02
2023-03-24T09:44:16.749Z,14.01
2023-03-24T09:46:58.402Z,14.11
2023-03-24T09:49:34.495Z,14.21
2023-03-24T09:52:10.352Z,14.30
2023-03-24T09:54:52.590Z,14.36
2023-03-24T09:57:29.683Z,14.47
2023-03-24T10:00:01.865Z,14.55
2023-03-24T10:02:36.675Z,14.62
2023-03-24T10:05:18.581Z,14.70
2023-03-24T10:07:58.819Z,14.79
2023-03-24T10:10:42.999Z,14.81
2023-03-24T10:13:29.390Z,14.90
2023-03-24T10:16:13.221Z,14.99
2023-03-24T10:18:57.259Z,15.08
2023-03-24T10:21:31.620Z,15.14
2023-03-24T10:24:14.218Z,15.22
2023-03-24T10:26:57.551Z,15.29
2023-03-24T10:29:33.891Z,15.38
2023-03-24T10:32:13.035Z,15.45
2023-03-24T10:34:52.332Z,15.52
2023-03-24T10:37:24.638Z,15.60
2023-03-24T10:39:56.831Z,15.69
2023-03-24T10:42:32.151Z,15.75
2023-03-24T10:45:04.485Z,15.82
2023-03-24T10:47:38.599Z,15.93
2023-03-24T10:50:15.869Z,15.97
2023-03-24T10:52:53.594Z,16.04
2023-03-24T10:55:34.896Z,16.09
2023-03-24T10:58:08.610Z,16.11
2023-03-24T11:00:42.798Z,16.05
2023-03-24T11:03:20.389Z,16.06
2023-03-24T11:06:03.729Z,16.07
2023-03-24T11:08:39.836Z,16.08
2023-03-24T11:11:31.494Z,16.09
2023-03-24T11:14:05.791Z,16.11
2023-03-24T11:16:42.109Z,16.11
2023-03-24T11:19:23.552Z,16.09
2023-03-24T11:22:07.439Z,16.05
2023-03-24T11:24:42.299Z,16.05
2023-03-24T11:27:19.431Z,16.06
2023-03-24T11:29:57.654Z,16.09
2023-03-24T11:32:31.692Z,16.16
2023-03-24T11:35:11.413Z,16.19
2023-03-24T11:37:46.692Z,16.21
2023-03-24T11:40:25.995Z,16.23
2023-03-24T11:43:01.782Z,16.27
2023-03-24T11:45:41.757Z,16.29
2023-03-24T11:48:28.658Z,16.33
2023-03-24T11:51:04.144Z,16.39
2023-03-24T11:53:51.795Z,16.46
2023-03-24T11:56:35.779Z,16.51
2023-03-24T11:59:18.660Z,16.50
2023-03-24T12:02:03.526Z,16.50
2023-03-24T12:04:52.566Z,16.54
2023-03-24T12:07:53.730Z,16.56
2023-03-24T12:10:48.592Z,16.58
2023-03-24T12:15:28.518Z,19.03
2023-03-24T12:19:30.890Z,19.05
2023-03-24T12:24:02.572Z,19.05
2023-03-24T12:26:35.922Z,17.17
2023-03-24T12:29:41.876Z,17.16
2023-03-24T12:32:33.164Z,17.09
2023-03-24T12:35:34.815Z,17.04
2023-03-24T12:38:29.598Z,16.98
2023-03-24T12:41:38.137Z,16.97
2023-03-24T12:44:40.771Z,16.93
2023-03-24T12:47:33.818Z,16.92
2023-03-24T12:52:47.211Z,18.73
2023-03-24T12:55:26.985Z,17.02
2023-03-24T12:58:06.559Z,17.15
2023-03-24T13:00:45.092Z,17.08
2023-03-24T13:03:24.890Z,17.02
2023-03-24T13:06:10.968Z,17.02
2023-03-24T13:09:08.215Z,16.92
2023-03-24T13:11:49.845Z,16.83
2023-03-24T13:14:31.263Z,16.76
2023-03-24T13:17:09.904Z,16.69
2023-03-24T13:19:42.627Z,16.54
2023-03-24T13:22:21.780Z,16.39
2023-03-24T13:24:59.442Z,16.30
2023-03-24T13:27:37.620Z,16.23
2023-03-24T13:30:36.154Z,16.17
2023-03-24T13:33:16.446Z,16.12
2023-03-24T13:36:15.933Z,16.08
2023-03-24T13:38:54.259Z,16.05
2023-03-24T13:41:31.789Z,16.05
2023-03-24T13:44:08.203Z,16.05
2023-03-24T13:46:42.077Z,16.08
2023-03-24T13:49:18.792Z,16.11
2023-03-24T13:53:20.493Z,18.18
2023-03-24T13:57:10.257Z,18.44
2023-03-24T14:01:19.109Z,18.59
2023-03-24T14:04:29.071Z,16.54
2023-03-24T14:07:02.944Z,16.50
2023-03-24T14:09:36.649Z,16.44
2023-03-24T14:12:31.684Z,16.34
2023-03-24T14:15:21.797Z,16.23
2023-03-24T14:18:00.658Z,16.13
2023-03-24T14:20:40.146Z,16.08
2023-03-24T14:23:29.072Z,15.98
2023-03-24T14:26:02.313Z,15.88
2023-03-24T14:28:41.381Z,15.84
2023-03-24T14:31:24.939Z,15.82
2023-03-24T14:34:14.146Z,15.82
2023-03-24T14:36:50.322Z,15.85
2023-03-24T14:39:31.719Z,15.95
2023-03-24T14:42:03.699Z,16.10
2023-03-24T14:45:03.785Z,16.25
2023-03-24T14:47:38.520Z,16.55
2023-03-24T14:50:24.662Z,16.74
2023-03-24T14:53:01.505Z,16.85
2023-03-24T14:55:36.016Z,16.97
2023-03-24T14:58:25.785Z,17.08
2023-03-24T15:01:07.111Z,17.16
2023-03-24T15:04:02.246Z,17.20
2023-03-24T15:06:58.323Z,17.21
2023-03-24T15:09:30.793Z,17.22
2023-03-24T15:12:05.409Z,17.25
2023-03-24T15:14:41.208Z,17.26
2023-03-24T15:17:25.702Z,17.27
2023-03-24T15:19:59.899Z,17.32
2023-03-24T15:22:45.042Z,17.34
2023-03-24T15:25:19.136Z,17.33
2023-03-24T15:27:54.111Z,17.31
2023-03-24T15:30:26.644Z,17.30
2023-03-24T15:32:58.795Z,17.28
2023-03-24T15:35:31.107Z,17.24
2023-03-24T15:38:06.253Z,17.17
2023-03-24T15:40:43.305Z,17.12
2023-03-24T15:43:24.743Z,17.08
2023-03-24T15:46:11.256Z,17.03
2023-03-24T15:48:44.818Z,16.97
2023-03-24T15:51:17.660Z,16.93
2023-03-24T15:54:01.904Z,16.90
2023-03-24T15:56:37.070Z,16.87
2023-03-24T15:59:17.989Z,16.84
2023-03-24T16:01:50.586Z,16.69
2023-03-24T16:04:24.184Z,16.67
2023-03-24T16:06:58.100Z,16.67
2023-03-24T16:09:41.323Z,16.65
2023-03-24T16:12:14.915Z,16.62
2023-03-24T16:14:47.064Z,16.58
2023-03-24T16:17:19.096Z,16.55
2023-03-24T16:19:51.126Z,16.50
2023-03-24T16:22:23.127Z,16.45
2023-03-24T16:24:57.950Z,16.44
2023-03-24T16:27:30.032Z,16.43
2023-03-24T16:30:02.087Z,16.39
2023-03-24T16:32:34.275Z,16.34
2023-03-24T16:35:06.430Z,16.30
2023-03-24T16:37:38.523Z,16.27
2023-03-24T16:40:25.456Z,16.24
2023-03-24T16:42:59.519Z,16.20
2023-03-24T16:45:32.009Z,16.14
2023-03-24T16:48:04.117Z,16.10
2023-03-24T16:50:40.739Z,16.02
2023-03-24T16:53:13.526Z,15.91
2023-03-24T16:55:48.875Z,15.84
2023-03-24T16:58:21.341Z,15.79
2023-03-24T17:00:53.618Z,15.75
2023-03-24T17:03:25.799Z,15.74
2023-03-24T17:05:58.282Z,15.75
2023-03-24T17:08:30.258Z,15.76
2023-03-24T17:11:04.879Z,15.77
2023-03-24T17:13:36.904Z,15.75
2023-03-24T17:16:14.090Z,15.72
2023-03-24T17:18:46.198Z,15.69
2023-03-24T17:21:21.859Z,15.65
2023-03-24T17:23:55.110Z,15.57
2023-03-24T17:26:31.854Z,15.49
2023-03-24T17:29:04.107Z,15.40
2023-03-24T17:31:36.272Z,15.31
2023-03-24T17:34:20.644Z,15.25
2023-03-24T17:36:54.570Z,15.21
2023-03-24T17:39:26.621Z,15.15
2023-03-24T17:42:01.664Z,15.08
2023-03-24T17:44:33.985Z,15.02
2023-03-24T17:47:07.846Z,14.97
2023-03-24T17:49:40.477Z,14.91
2023-03-24T17:52:18.707Z,14.84
2023-03-24T17:54:50.939Z,14.79
2023-03-24T17:57:25.593Z,14.76
2023-03-24T17:59:57.715Z,14.68
2023-03-24T18:09:54.337Z,15.79
2023-03-24T18:12:27.657Z,13.80
2023-03-24T18:14:59.921Z,13.38
2023-03-24T18:17:32.172Z,13.16
2023-03-24T18:20:09.204Z,12.97
2023-03-24T18:22:42.130Z,12.71
2023-03-24T18:25:19.141Z,12.53
2023-03-24T18:27:51.589Z,12.36
2023-03-24T18:30:23.774Z,12.23
2023-03-24T18:32:55.933Z,12.14
2023-03-24T18:35:28.467Z,12.05
2023-03-24T18:38:00.598Z,11.97
2023-03-24T18:40:35.276Z,11.90
2023-03-24T18:43:07.460Z,11.82
2023-03-24T18:45:39.672Z,11.73
2023-03-24T18:48:15.625Z,11.65
2023-03-24T18:50:48.363Z,11.57
2023-03-24T18:53:20.633Z,11.51
2023-03-24T18:55:55.669Z,11.45
2023-03-24T18:58:27.984Z,11.42
2023-03-24T19:01:02.911Z,11.37
2023-03-24T19:03:35.948Z,11.32
2023-03-24T19:06:09.701Z,11.25
2023-03-24T19:08:45.055Z,11.16
2023-03-24T19:11:19.927Z,11.08
2023-03-24T19:13:52.490Z,11.01
2023-03-24T19:16:25.075Z,10.94
2023-03-24T19:18:58.035Z,10.88
2023-03-24T19:21:30.300Z,10.82
2023-03-24T19:24:02.758Z,10.77
2023-03-24T19:26:37.544Z,10.72
2023-03-24T19:29:09.576Z,10.67
2023-03-24T19:31:41.703Z,10.63
2023-03-24T19:34:14.874Z,10.59
2023-03-24T19:36:49.522Z,10.56
2023-03-24T19:39:22.581Z,10.52
2023-03-24T19:41:57.239Z,10.50
2023-03-24T19:44:29.274Z,10.47
2023-03-24T19:47:01.355Z,10.46
2023-03-24T19:49:33.337Z,10.44
2023-03-24T19:52:06.581Z,10.41
2023-03-24T19:54:38.668Z,10.39
2023-03-24T19:57:13.360Z,10.37
2023-03-24T19:59:45.379Z,10.35
2023-03-24T20:02:21.154Z,10.33
2023-03-24T20:04:55.293Z,10.32
2023-03-24T20:07:28.328Z,10.30
2023-03-24T20:10:00.412Z,10.22
2023-03-24T20:12:35.043Z,10.21
2023-03-24T20:15:08.065Z,10.21
2023-03-24T20:17:40.723Z,10.21
2023-03-24T20:20:17.118Z,10.21
2023-03-24T20:22:49.179Z,10.22
2023-03-24T20:25:23.481Z,10.22
2023-03-24T20:27:58.538Z,10.23
2023-03-24T20:30:32.778Z,10.24
2023-03-24T20:33:05.371Z,10.24
2023-03-24T20:35:39.585Z,10.23
2023-03-24T20:38:11.682Z,10.21
2023-03-24T20:40:43.695Z,10.19
2023-03-24T20:43:18.497Z,10.17
2023-03-24T20:45:50.799Z,10.14
2023-03-24T20:48:23.131Z,10.12
2023-03-24T20:50:56.107Z,10.10
2023-03-24T20:53:29.363Z,10.09
2023-03-24T20:56:04.615Z,10.07
2023-03-24T20:58:41.504Z,10.04
2023-03-24T21:01:22.396Z,10.03
2023-03-24T21:04:02.182Z,10.02
2023-03-24T21:06:41.059Z,10.00
2023-03-24T21:09:13.448Z,9.99
2023-03-24T21:11:45.580Z,9.98
2023-03-24T21:14:20.516Z,9.97
2023-03-24T21:16:52.642Z,9.96
2023-03-24T21:19:24.696Z,9.96
2023-03-24T21:21:56.687Z,9.95
2023-03-24T21:24:28.859Z,9.95
2023-03-24T21:27:01.018Z,9.94
2023-03-24T21:29:35.821Z,9.94
2023-03-24T21:32:08.094Z,9.94
2023-03-24T21:34:40.195Z,9.93
2023-03-24T21:37:14.478Z,9.94
2023-03-24T21:39:46.596Z,9.94
2023-03-24T21:42:19.498Z,9.95
2023-03-24T21:44:54.491Z,9.97
2023-03-24T21:47:27.226Z,10.00
2023-03-24T21:50:03.174Z,10.02
2023-03-24T21:52:39.245Z,10.06
2023-03-24T21:55:14.791Z,10.09
2023-03-24T21:57:48.020Z,10.12
2023-03-24T22:00:25.847Z,10.14
2023-03-24T22:03:01.711Z,10.14
2023-03-24T22:05:34.132Z,10.14
2023-03-24T22:08:06.845Z,10.14
2023-03-24T22:10:42.631Z,10.05
2023-03-24T22:13:14.702Z,10.06
2023-03-24T22:15:49.761Z,10.07
2023-03-24T22:18:21.947Z,10.07
2023-03-24T22:21:01.117Z,10.07
2023-03-24T22:23:33.693Z,10.07
2023-03-24T22:26:08.956Z,10.06
2023-03-24T22:28:42.483Z,10.03
2023-03-24T22:31:23.159Z,10.01
2023-03-24T22:33:56.437Z,9.99
2023-03-24T22:36:28.442Z,9.99
2023-03-24T22:39:00.476Z,10.00
2023-03-24T22:41:32.617Z,10.01
2023-03-24T22:44:04.667Z,10.03
2023-03-24T22:46:39.451Z,10.07
2023-03-24T22:49:11.469Z,10.10
2023-03-24T22:51:43.565Z,10.13
2023-03-24T22:54:15.747Z,10.15
2023-03-24T22:56:48.058Z,10.17
2023-03-24T22:59:20.230Z,10.18
2023-03-24T23:02:06.360Z,10.19
2023-03-24T23:04:42.600Z,10.20
2023-03-24T23:07:14.673Z,10.21
2023-03-24T23:09:46.792Z,10.21
2023-03-24T23:12:19.191Z,10.21
2023-03-24T23:14:54.478Z,10.22
2023-03-24T23:17:29.160Z,10.22
2023-03-24T23:20:01.278Z,10.23
2023-03-24T23:22:33.630Z,10.23
2023-03-24T23:25:05.897Z,10.21
2023-03-24T23:27:39.601Z,10.20
2023-03-24T23:30:15.054Z,10.19
2023-03-24T23:32:49.803Z,10.18
2023-03-24T23:35:22.675Z,10.18
2023-03-24T23:37:54.721Z,10.18
2023-03-24T23:40:26.934Z,10.18
2023-03-24T23:42:58.931Z,10.18
2023-03-24T23:45:31.646Z,10.19
2023-03-24T23:48:06.567Z,10.17
2023-03-24T23:50:38.700Z,10.16
2023-03-24T23:53:10.819Z,10.16
2023-03-24T23:55:42.967Z,10.15
2023-03-24T23:58:14.981Z,10.15
